createdAt,value
2023-12-08T00:02:08.865Z,100254.03
2023-12-08T00:04:36.422Z,100248.78
2023-12-08T00:07:03.935Z,100253.19
2023-12-08T00:09:33.388Z,100249.72
2023-12-08T00:12:02.618Z,100258.44
2023-12-08T00:14:30.280Z,100262.44
2023-12-08T00:16:57.811Z,100256.38
2023-12-08T00:19:25.440Z,100256.25
2023-12-08T00:21:52.985Z,100252.78
2023-12-08T00:24:21.056Z,100235.28
2023-12-08T00:26:50.000Z,100233.31
2023-12-08T00:29:20.404Z,100228.94
2023-12-08T00:31:47.967Z,100220.50
2023-12-08T00:34:16.059Z,100222.03
2023-12-08T00:36:43.729Z,100211.69
2023-12-08T00:39:11.260Z,100198.56
2023-12-08T00:41:38.794Z,100198.28
2023-12-08T00:44:09.723Z,100198.28
2023-12-08T00:46:37.318Z,100197.06
2023-12-08T00:49:04.957Z,100194.97
2023-12-08T00:51:32.525Z,100207.28
2023-12-08T00:54:00.100Z,100211.69
2023-12-08T00:56:28.945Z,100221.47
2023-12-08T00:58:56.524Z,100220.78
2023-12-08T01:01:25.541Z,100210.69
2023-12-08T01:03:53.307Z,100205.19
2023-12-08T01:06:20.942Z,100207.00
2023-12-08T01:08:48.501Z,100211.53
2023-12-08T01:11:16.146Z,100206.03
2023-12-08T01:13:43.637Z,100221.91
2023-12-08T01:16:11.456Z,100216.25
2023-12-08T01:18:40.545Z,100202.16
2023-12-08T01:21:08.552Z,100209.34
2023-12-08T01:23:36.153Z,100190.00
2023-12-08T01:26:03.780Z,100185.59
2023-12-08T01:28:31.307Z,100171.38
2023-12-08T01:30:58.845Z,100167.78
2023-12-08T01:33:26.480Z,100167.09
2023-12-08T01:36:37.420Z,100163.09
2023-12-08T01:38:45.367Z,100168.47
2023-12-08T01:41:14.776Z,100173.16
2023-12-08T01:43:42.777Z,100163.25
2023-12-08T01:46:12.438Z,100150.97
2023-12-08T01:48:40.198Z,100157.28
2023-12-08T01:51:09.645Z,100157.56
2023-12-08T01:53:37.713Z,100152.59
2023-12-08T01:56:06.391Z,100155.50
2023-12-08T01:58:33.917Z,100145.72
2023-12-08T02:01:04.806Z,100141.97
2023-12-08T02:03:34.290Z,100133.13
2023-12-08T02:06:02.424Z,100134.81
2023-12-08T02:08:31.913Z,100129.56
2023-12-08T02:10:59.461Z,100126.63
2023-12-08T02:13:27.099Z,100122.91
2023-12-08T02:15:59.208Z,100116.69
2023-12-08T02:18:27.158Z,100119.03
2023-12-08T02:20:54.790Z,100128.16
2023-12-08T02:23:22.337Z,100131.88
2023-12-08T02:25:51.207Z,100138.09
2023-12-08T02:28:18.748Z,100129.25
2023-12-08T02:30:46.613Z,100131.88
2023-12-08T02:33:19.296Z,100136.19
2023-12-08T02:35:48.481Z,100125.69
2023-12-08T02:38:21.162Z,100120.44
2023-12-08T02:40:48.734Z,100117.94
2023-12-08T02:43:18.081Z,100113.94
2023-12-08T02:45:45.595Z,100102.72
2023-12-08T02:48:13.337Z,100104.41
2023-12-08T02:50:41.799Z,100101.78
2023-12-08T02:53:09.369Z,100096.53
2023-12-08T02:55:37.030Z,100106.06
2023-12-08T02:58:04.579Z,100104.13
2023-12-08T03:00:33.475Z,100103.31
2023-12-08T03:03:01.083Z,100104.84
2023-12-08T03:05:28.620Z,100087.84
2023-12-08T03:07:56.101Z,100090.03
2023-12-08T03:10:23.695Z,100091.00
2023-12-08T03:12:51.285Z,100090.03
2023-12-08T03:15:18.826Z,100084.50
2023-12-08T03:17:47.778Z,100080.25
2023-12-08T03:20:15.777Z,100074.00
2023-12-08T03:22:43.324Z,100068.75
2023-12-08T03:25:10.811Z,100070.81
2023-12-08T03:27:38.305Z,100068.63
2023-12-08T03:30:07.091Z,100074.28
2023-12-08T03:32:34.710Z,100077.06
2023-12-08T03:35:03.598Z,100074.28
2023-12-08T03:37:31.197Z,100077.63
2023-12-08T03:39:58.702Z,100084.97
2023-12-08T03:42:26.187Z,100081.50
2023-12-08T03:44:53.822Z,100086.19
2023-12-08T03:47:21.345Z,100076.66
2023-12-08T03:49:48.945Z,100080.09
2023-12-08T03:52:17.801Z,100072.66
2023-12-08T03:54:45.280Z,100070.16
2023-12-08T03:57:12.822Z,100061.59
2023-12-08T03:59:40.383Z,100057.72
2023-12-08T04:02:07.894Z,100043.94
2023-12-08T04:04:35.574Z,100055.22
2023-12-08T04:07:03.469Z,100050.97
2023-12-08T04:09:32.862Z,100057.72
2023-12-08T04:12:00.613Z,100047.34
2023-12-08T04:14:28.190Z,100042.53
2023-12-08T04:16:55.659Z,100043.22
2023-12-08T04:19:23.387Z,100035.91
2023-12-08T04:21:51.038Z,100039.75
2023-12-08T04:24:18.608Z,100033.53
2023-12-08T04:26:47.596Z,100035.34
2023-12-08T04:29:15.316Z,100039.91
2023-12-08T04:31:42.835Z,100032.31
2023-12-08T04:34:10.457Z,100029.13
2023-12-08T04:36:38.068Z,100021.03
2023-12-08T04:39:05.748Z,100021.31
2023-12-08T04:41:33.341Z,100026.13
2023-12-08T04:44:02.175Z,100024.91
2023-12-08T04:46:29.652Z,100034.56
2023-12-08T04:48:57.223Z,100026.81
2023-12-08T04:51:24.826Z,100025.19
2023-12-08T04:53:52.335Z,100026.00
2023-12-08T04:56:19.817Z,100028.47
2023-12-08T04:58:48.928Z,100041.88
2023-12-08T05:01:17.762Z,100025.47
2023-12-08T05:03:45.336Z,100034.28
2023-12-08T05:06:13.013Z,100024.78
2023-12-08T05:08:40.828Z,100015.41
2023-12-08T05:11:08.733Z,100014.69
2023-12-08T05:13:36.325Z,100022.84
2023-12-08T05:16:03.838Z,100027.13
2023-12-08T05:18:32.797Z,100035.13
2023-12-08T05:21:00.476Z,100038.84
2023-12-08T05:23:27.990Z,100032.25
2023-12-08T05:25:55.545Z,100036.25
2023-12-08T05:28:23.067Z,100032.66
2023-12-08T05:30:50.815Z,100037.34
2023-12-08T05:33:18.545Z,100047.31
2023-12-08T05:35:47.573Z,100044.81
2023-12-08T05:38:15.067Z,100047.84
2023-12-08T05:40:42.552Z,100049.63
2023-12-08T05:43:10.058Z,100052.66
2023-12-08T05:45:37.558Z,100050.31
2023-12-08T05:48:05.774Z,100053.22
2023-12-08T05:50:33.464Z,100052.81
2023-12-08T05:53:02.363Z,100043.97
2023-12-08T05:55:30.224Z,100049.63
2023-12-08T05:57:57.954Z,100049.91
2023-12-08T06:00:25.618Z,100057.22
2023-12-08T06:02:53.266Z,100059.81
2023-12-08T06:05:21.216Z,100064.47
2023-12-08T06:07:48.888Z,100073.28
2023-12-08T06:10:17.854Z,100074.00
2023-12-08T06:12:45.459Z,100082.03
2023-12-08T06:15:13.184Z,100094.38
2023-12-08T06:17:40.792Z,100095.50
2023-12-08T06:20:11.122Z,100098.50
2023-12-08T06:22:38.766Z,100106.50
2023-12-08T06:25:07.150Z,100111.03
2023-12-08T06:27:37.305Z,100109.78
2023-12-08T06:30:06.178Z,100105.69
2023-12-08T06:32:33.927Z,100111.78
2023-12-08T06:35:01.662Z,100116.22
2023-12-08T06:37:29.560Z,100113.47
2023-12-08T06:39:57.307Z,100111.53
2023-12-08T06:42:24.817Z,100113.16
2023-12-08T06:44:54.016Z,100109.97
2023-12-08T06:47:21.578Z,100109.84
2023-12-08T06:49:49.251Z,100113.69
2023-12-08T06:52:16.888Z,100106.09
2023-12-08T06:54:44.364Z,100101.84
2023-12-08T06:57:11.919Z,100105.25
2023-12-08T06:59:39.460Z,100107.88
2023-12-08T07:02:08.328Z,100105.41
2023-12-08T07:04:35.865Z,100103.88
2023-12-08T07:07:04.179Z,100100.72
2023-12-08T07:09:31.697Z,100097.41
2023-12-08T07:11:59.268Z,100093.81
2023-12-08T07:14:26.823Z,100094.78
2023-12-08T07:16:54.351Z,100090.25
2023-12-08T07:19:23.294Z,100098.91
2023-12-08T07:21:50.972Z,100111.75
2023-12-08T07:24:18.787Z,100114.75
2023-12-08T07:26:46.471Z,100116.16
2023-12-08T07:29:14.047Z,100117.56
2023-12-08T07:31:41.575Z,100116.31
2023-12-08T07:34:09.129Z,100110.09
2023-12-08T07:36:38.021Z,100106.56
2023-12-08T07:39:05.600Z,100108.19
2023-12-08T07:41:33.225Z,100082.97
2023-12-08T07:44:00.773Z,100071.91
2023-12-08T07:46:28.822Z,100054.69
2023-12-08T07:48:56.434Z,100069.44
2023-12-08T07:51:24.024Z,100103.22
2023-12-08T07:53:53.266Z,100112.84
2023-12-08T07:56:20.848Z,100108.47
2023-12-08T07:58:49.370Z,100101.31
2023-12-08T08:01:17.021Z,100093.00
2023-12-08T08:03:45.150Z,100091.94
2023-12-08T08:06:12.773Z,100095.81
2023-12-08T08:08:40.318Z,100091.13
2023-12-08T08:11:09.476Z,100102.03
2023-12-08T08:13:37.713Z,100103.97
2023-12-08T08:16:05.734Z,100096.09
2023-12-08T08:18:33.375Z,100106.31
2023-12-08T08:21:01.084Z,100114.59
2023-12-08T08:23:29.118Z,100119.53
2023-12-08T08:25:58.394Z,100131.69
2023-12-08T08:28:27.602Z,100122.00
2023-12-08T08:30:55.246Z,100112.94
2023-12-08T08:33:23.919Z,100107.44
2023-12-08T08:35:51.782Z,100104.41
2023-12-08T08:38:19.348Z,100100.00
2023-12-08T08:40:47.407Z,100094.75
2023-12-08T08:43:15.145Z,100089.78
2023-12-08T08:45:44.025Z,100101.66
2023-12-08T08:48:11.599Z,100096.69
2023-12-08T08:50:47.526Z,100094.63
2023-12-08T08:53:18.411Z,100092.53
2023-12-08T08:55:46.352Z,100094.88
2023-12-08T08:58:13.946Z,100097.25
2023-12-08T09:00:42.062Z,100106.59
2023-12-08T09:03:10.984Z,100115.31
2023-12-08T09:05:42.301Z,100120.56
2023-12-08T09:08:10.254Z,100126.38
2023-12-08T09:10:38.290Z,100119.84
2023-12-08T09:13:05.976Z,100129.25
2023-12-08T09:15:33.761Z,100128.41
2023-12-08T09:18:01.453Z,100134.06
2023-12-08T09:20:30.426Z,100130.91
2023-12-08T09:22:57.938Z,100132.28
2023-12-08T09:25:25.519Z,100131.31
2023-12-08T09:27:53.026Z,100132.56
2023-12-08T09:30:20.699Z,100143.63
2023-12-08T09:32:48.403Z,100123.59
2023-12-08T09:35:16.047Z,100127.19
2023-12-08T09:37:44.935Z,100127.03
2023-12-08T09:40:15.780Z,100130.78
2023-12-08T09:42:47.557Z,100124.31
2023-12-08T09:45:15.294Z,100127.34
2023-12-08T09:47:43.366Z,100129.25
2023-12-08T09:50:13.763Z,100131.88
2023-12-08T09:52:42.026Z,100129.97
2023-12-08T09:55:12.905Z,100130.66
2023-12-08T09:57:44.893Z,100126.50
2023-12-08T10:00:14.691Z,100132.88
2023-12-08T10:02:43.163Z,100135.34
2023-12-08T10:05:11.773Z,64454.09
2023-12-08T10:07:41.947Z,64454.09
2023-12-08T10:10:11.882Z,64454.09
2023-12-08T10:12:41.452Z,64454.09
2023-12-08T10:15:12.356Z,64454.09
2023-12-08T10:17:49.761Z,64454.09
2023-12-08T10:20:19.090Z,64454.09
2023-12-08T10:22:49.383Z,64454.09
2023-12-08T10:25:19.939Z,64454.09
2023-12-08T10:27:48.926Z,64454.09
2023-12-08T10:30:17.504Z,64454.09
2023-12-08T10:32:45.627Z,64454.09
2023-12-08T10:35:13.942Z,64454.09
2023-12-08T10:37:42.632Z,64454.09
2023-12-08T10:40:13.123Z,64454.09
2023-12-08T10:42:42.212Z,64454.09
2023-12-08T10:45:12.151Z,64454.09
2023-12-08T10:47:41.671Z,64454.09
2023-12-08T10:50:11.353Z,64454.09
2023-12-08T10:52:40.192Z,64454.09
2023-12-08T10:55:08.615Z,64454.09
2023-12-08T10:57:37.548Z,64454.09
2023-12-08T11:00:13.510Z,64454.09
2023-12-08T11:02:42.529Z,64454.09
2023-12-08T11:05:14.976Z,64454.09
2023-12-08T11:07:46.764Z,64454.09
2023-12-08T11:10:15.833Z,64454.09
2023-12-08T11:12:50.559Z,64454.09
2023-12-08T11:15:23.759Z,64454.09
2023-12-08T11:17:55.107Z,64454.09
2023-12-08T11:20:23.021Z,64454.09
2023-12-08T11:22:50.795Z,64454.09
2023-12-08T11:25:23.888Z,64454.09
2023-12-08T11:27:59.260Z,64454.09
2023-12-08T11:30:35.962Z,64454.09
2023-12-08T11:33:11.294Z,64454.09
2023-12-08T11:35:39.026Z,64454.09
2023-12-08T11:38:06.531Z,64454.09
2023-12-08T11:40:34.115Z,64454.09
2023-12-08T11:43:03.395Z,64454.09
2023-12-08T11:45:32.461Z,64454.09
2023-12-08T11:48:13.179Z,64454.09
2023-12-08T11:50:40.873Z,64454.09
2023-12-08T11:53:08.648Z,64454.09
2023-12-08T11:55:36.681Z,64454.09
2023-12-08T11:58:08.838Z,64454.09
2023-12-08T12:00:39.981Z,64454.09
2023-12-08T12:03:12.209Z,64454.09
2023-12-08T12:05:40.473Z,64454.09
2023-12-08T12:08:09.293Z,64454.09
2023-12-08T12:10:37.016Z,64454.09
2023-12-08T12:13:06.180Z,64454.09
2023-12-08T12:15:35.449Z,64454.09
2023-12-08T12:18:05.327Z,64454.09
2023-12-08T12:20:35.639Z,64454.09
2023-12-08T12:23:03.565Z,64454.09
2023-12-08T12:25:31.161Z,64454.09
2023-12-08T12:27:59.177Z,64454.09
2023-12-08T12:30:26.988Z,64454.09
2023-12-08T12:32:54.914Z,64454.09
2023-12-08T12:35:24.634Z,64454.09
2023-12-08T12:37:52.137Z,64454.09
2023-12-08T12:40:20.242Z,64454.09
2023-12-08T12:42:49.241Z,64454.09
2023-12-08T12:45:28.589Z,64454.09
2023-12-08T12:48:05.594Z,64454.09
2023-12-08T12:50:46.437Z,64454.09
2023-12-08T12:53:15.198Z,64454.09
2023-12-08T12:55:42.770Z,64454.09
2023-12-08T12:58:19.296Z,64454.09
2023-12-08T13:00:47.905Z,64454.09
2023-12-08T13:03:16.524Z,64454.09
2023-12-08T13:05:49.742Z,64454.09
2023-12-08T13:08:18.936Z,64454.09
2023-12-08T13:10:47.418Z,64454.09
2023-12-08T13:13:14.952Z,64454.09
2023-12-08T13:15:43.261Z,64454.09
2023-12-08T13:18:11.428Z,64454.09
2023-12-08T13:20:40.154Z,64454.09
2023-12-08T13:23:09.407Z,64454.09
2023-12-08T13:25:37.847Z,64454.09
2023-12-08T13:28:06.007Z,64454.09
2023-12-08T13:30:33.977Z,64454.09
2023-12-08T13:33:04.758Z,64454.09
2023-12-08T13:35:34.596Z,64454.09
2023-12-08T13:38:02.403Z,64454.09
2023-12-08T13:40:31.410Z,64454.09
2023-12-08T13:42:59.098Z,64454.09
2023-12-08T13:45:27.015Z,64454.09
2023-12-08T13:47:55.027Z,64454.09
2023-12-08T13:50:22.674Z,64454.09
2023-12-08T13:52:50.796Z,64454.09
2023-12-08T13:55:18.542Z,64454.09
2023-12-08T13:57:47.403Z,64454.09
2023-12-08T14:00:17.372Z,64454.09
2023-12-08T14:02:45.465Z,64454.09
2023-12-08T14:05:13.241Z,64454.09
2023-12-08T14:07:41.821Z,64454.09
2023-12-08T14:10:10.801Z,64454.09
2023-12-08T14:12:38.322Z,64454.09
2023-12-08T14:18:20.817Z,64454.09
2023-12-08T14:20:48.735Z,64454.09
2023-12-08T14:23:16.249Z,64454.09
2023-12-08T14:25:43.771Z,64454.09
2023-12-08T14:28:11.275Z,64454.09
2023-12-08T14:30:40.169Z,64454.09
2023-12-08T14:33:07.832Z,64454.09
2023-12-08T14:35:36.298Z,64454.09
2023-12-08T14:38:05.274Z,64454.09
2023-12-08T14:40:34.193Z,64454.09
2023-12-08T14:43:01.979Z,64454.09
2023-12-08T14:45:29.905Z,64454.09
2023-12-08T14:47:58.913Z,64454.09
2023-12-08T14:50:26.477Z,64454.09
2023-12-08T14:52:54.366Z,64454.09
2023-12-08T14:55:21.880Z,64454.09
2023-12-08T14:57:49.391Z,64454.09
2023-12-08T15:00:17.594Z,64454.09
2023-12-08T15:02:45.573Z,64454.09
2023-12-08T15:05:14.658Z,64454.09
2023-12-08T15:07:42.544Z,64454.09
2023-12-08T15:10:10.377Z,64454.09
2023-12-08T15:12:38.230Z,64454.09
2023-12-08T15:15:06.315Z,64454.09
2023-12-08T15:17:35.241Z,64454.09
2023-12-08T15:20:04.825Z,64454.09
2023-12-08T15:22:34.541Z,64454.09
2023-12-08T15:25:02.113Z,64454.09
2023-12-08T15:27:30.411Z,64454.09
2023-12-08T15:29:58.382Z,64454.09
2023-12-08T15:32:26.297Z,64454.09
2023-12-08T15:34:53.931Z,64454.09
2023-12-08T15:37:21.463Z,64454.09
2023-12-08T15:39:50.614Z,64454.09
2023-12-08T15:42:18.284Z,64454.09
2023-12-08T15:44:45.902Z,64454.09
2023-12-08T15:47:14.037Z,64454.09
2023-12-08T15:49:42.328Z,64454.09
2023-12-08T15:52:25.592Z,64454.09
2023-12-08T15:54:54.462Z,64454.09
2023-12-08T15:57:22.084Z,64454.09
2023-12-08T15:59:49.671Z,64454.09
2023-12-08T16:02:17.167Z,64454.09
2023-12-08T16:04:44.683Z,64454.09
2023-12-08T16:07:12.180Z,64454.09
2023-12-08T16:09:43.504Z,64454.09
2023-12-08T16:12:13.000Z,64454.09
2023-12-08T16:14:43.193Z,64454.09
2023-12-08T16:17:10.887Z,64454.09
2023-12-08T16:19:38.584Z,64454.09
2023-12-08T16:22:06.228Z,64454.09
2023-12-08T16:24:33.746Z,64454.09
2023-12-08T16:27:01.355Z,64454.09
2023-12-08T16:29:30.253Z,64454.09
2023-12-08T16:31:57.766Z,64454.09
2023-12-08T16:34:25.801Z,64454.09
2023-12-08T16:36:53.509Z,64454.09
2023-12-08T16:39:23.825Z,64454.09
2023-12-08T16:41:51.651Z,64454.09
2023-12-08T16:44:20.052Z,64454.09
2023-12-08T16:46:48.919Z,64454.09
2023-12-08T16:49:16.650Z,64454.09
2023-12-08T16:51:44.664Z,64454.09
2023-12-08T16:54:12.170Z,64454.09
2023-12-08T16:56:39.718Z,64454.09
2023-12-08T16:59:07.234Z,64454.09
2023-12-08T17:01:34.880Z,64454.09
2023-12-08T17:04:03.911Z,64454.09
2023-12-08T17:06:31.627Z,64454.09
2023-12-08T17:08:59.277Z,64454.09
2023-12-08T17:11:26.815Z,64454.09
2023-12-08T17:13:55.089Z,64454.09
2023-12-08T17:16:23.186Z,64454.09
2023-12-08T17:18:50.880Z,64454.09
2023-12-08T17:21:20.169Z,64454.09
2023-12-08T17:23:47.907Z,64454.09
2023-12-08T17:26:19.736Z,64454.09
2023-12-08T17:28:53.112Z,64454.09
2023-12-08T17:31:20.675Z,64454.09
2023-12-08T17:33:48.365Z,64454.09
2023-12-08T17:36:16.060Z,64454.09
2023-12-08T17:38:45.033Z,64454.09
2023-12-08T17:41:12.617Z,64454.09
2023-12-08T17:43:40.151Z,64454.09
2023-12-08T17:46:09.742Z,64454.09
2023-12-08T17:48:38.911Z,64454.09
2023-12-08T17:51:06.880Z,64454.09
2023-12-08T17:53:34.989Z,64454.09
2023-12-08T17:56:05.516Z,64454.09
2023-12-08T17:58:33.070Z,64454.09
2023-12-08T18:01:00.611Z,64454.09
2023-12-08T18:03:29.727Z,64454.09
2023-12-08T18:05:57.633Z,64454.09
2023-12-08T18:08:25.269Z,64454.09
2023-12-08T18:10:52.824Z,64454.09
2023-12-08T18:13:21.730Z,64454.09
2023-12-08T18:15:49.285Z,64454.09
2023-12-08T18:18:16.944Z,64454.09
2023-12-08T18:20:45.024Z,64454.09
2023-12-08T18:23:15.148Z,64454.09
2023-12-08T18:25:42.814Z,64454.09
2023-12-08T18:28:38.396Z,64454.09
2023-12-08T18:31:00.333Z,64454.09
2023-12-08T18:33:27.963Z,64454.09
2023-12-08T18:35:55.822Z,64454.09
2023-12-08T18:38:23.347Z,64454.09
2023-12-08T18:40:50.897Z,64454.09
2023-12-08T18:43:18.386Z,64454.09
2023-12-08T18:45:46.022Z,64454.09
2023-12-08T18:48:15.140Z,64454.09
2023-12-08T18:50:42.968Z,64454.09
2023-12-08T18:53:10.499Z,64454.09
2023-12-08T18:55:38.046Z,64454.09
2023-12-08T18:58:08.086Z,64454.09
2023-12-08T19:00:36.075Z,64454.09
2023-12-08T19:03:03.967Z,64454.09
2023-12-08T19:05:36.750Z,64454.09
2023-12-08T19:08:05.051Z,64454.09
2023-12-08T19:10:32.617Z,64454.09
2023-12-08T19:13:00.213Z,64454.09
2023-12-08T19:15:27.869Z,64454.09
2023-12-08T19:17:55.629Z,64454.09
2023-12-08T19:20:23.275Z,64454.09
2023-12-08T19:22:52.890Z,64454.09
2023-12-08T19:25:20.407Z,64454.09
2023-12-08T19:27:47.994Z,64454.09
2023-12-08T19:30:15.787Z,64454.09
2023-12-08T19:32:43.356Z,64454.09
2023-12-08T19:35:11.026Z,64454.09
2023-12-08T19:37:38.649Z,64454.09
2023-12-08T19:40:09.320Z,64454.09
2023-12-08T19:42:37.127Z,64454.09
2023-12-08T19:45:05.609Z,64454.09
2023-12-08T19:47:42.905Z,64454.09
2023-12-08T19:50:12.340Z,64454.09
2023-12-08T19:52:39.854Z,64454.09
2023-12-08T19:55:09.520Z,64454.09
2023-12-08T19:57:37.173Z,64454.09
2023-12-08T20:00:06.203Z,64454.09
2023-12-08T20:02:36.560Z,64454.09
2023-12-08T20:05:05.157Z,64454.09
2023-12-08T20:07:32.905Z,64454.09
2023-12-08T20:10:00.734Z,64454.09
2023-12-08T20:12:29.917Z,64454.09
2023-12-08T20:14:57.577Z,64454.09
2023-12-08T20:17:25.094Z,64454.09
2023-12-08T20:19:53.457Z,64454.09
2023-12-08T20:22:21.772Z,64454.09
2023-12-08T20:24:49.948Z,64454.09
2023-12-08T20:27:18.121Z,64454.09
2023-12-08T20:29:47.250Z,64454.09
2023-12-08T20:32:14.785Z,64454.09
2023-12-08T20:34:43.713Z,64454.09
2023-12-08T20:37:11.348Z,64454.09
2023-12-08T20:39:39.008Z,64454.09
2023-12-08T20:42:07.455Z,64454.09
2023-12-08T20:44:35.075Z,64454.09
2023-12-08T20:47:03.994Z,64454.09
2023-12-08T20:49:31.688Z,64454.09
2023-12-08T20:51:59.404Z,64454.09
2023-12-08T20:54:27.035Z,64454.09
2023-12-08T20:56:54.642Z,64454.09
2023-12-08T20:59:22.345Z,64454.09
2023-12-08T21:01:49.986Z,64454.09
2023-12-08T21:04:19.038Z,64454.09
2023-12-08T21:06:46.772Z,64454.09
2023-12-08T21:09:14.682Z,64454.09
2023-12-08T21:11:42.733Z,64454.09
2023-12-08T21:14:10.705Z,64454.09
2023-12-08T21:16:39.861Z,64454.09
2023-12-08T21:19:07.781Z,64454.09
2023-12-08T21:21:37.525Z,64454.09
2023-12-08T21:24:05.827Z,64454.09
2023-12-08T21:26:33.533Z,64454.09
2023-12-08T21:29:01.664Z,64454.09
2023-12-08T21:31:29.269Z,64454.09
2023-12-08T21:33:58.343Z,64454.09
2023-12-08T21:36:26.545Z,64454.09
2023-12-08T21:38:55.427Z,64454.09
2023-12-08T21:41:23.085Z,64454.09
2023-12-08T21:43:50.586Z,64454.09
2023-12-08T21:46:18.109Z,64454.09
2023-12-08T21:48:45.769Z,64454.09
2023-12-08T21:51:13.409Z,64454.09
2023-12-08T21:53:41.065Z,64454.09
2023-12-08T21:56:10.074Z,64454.09
2023-12-08T21:58:37.619Z,64454.09
2023-12-08T22:01:06.741Z,64454.09
2023-12-08T22:03:34.489Z,64454.09
2023-12-08T22:06:02.020Z,64454.09
2023-12-08T22:08:29.622Z,64454.09
2023-12-08T22:10:57.171Z,64454.09
2023-12-08T22:13:26.086Z,64454.09
2023-12-08T22:15:53.583Z,64454.09
2023-12-08T22:18:21.404Z,64454.09
2023-12-08T22:20:49.020Z,64454.09
2023-12-08T22:23:16.598Z,64454.09
2023-12-08T22:25:44.126Z,64454.09
2023-12-08T22:28:12.893Z,64454.09
2023-12-08T22:30:42.090Z,64454.09
2023-12-08T22:33:09.758Z,64454.09
2023-12-08T22:35:37.384Z,64454.09
2023-12-08T22:38:05.093Z,64454.09
2023-12-08T22:40:32.685Z,64454.09
2023-12-08T22:43:00.276Z,64454.09
2023-12-08T22:45:27.874Z,64454.09
2023-12-08T22:47:56.988Z,64454.09
2023-12-08T22:50:29.377Z,64454.09
2023-12-08T22:53:03.420Z,64454.09
2023-12-08T22:55:30.984Z,64454.09
2023-12-08T22:57:58.943Z,64454.09
2023-12-08T23:00:27.142Z,64454.09
2023-12-08T23:02:55.254Z,64454.09
2023-12-08T23:05:24.490Z,64454.09
2023-12-08T23:07:52.010Z,64454.09
2023-12-08T23:10:19.735Z,64454.09
2023-12-08T23:12:47.242Z,64454.09
2023-12-08T23:15:15.367Z,64454.09
2023-12-08T23:17:42.979Z,64454.09
2023-12-08T23:20:12.207Z,64454.09
2023-12-08T23:22:41.058Z,64454.09
2023-12-08T23:25:08.882Z,64454.09
2023-12-08T23:27:36.410Z,64454.09
2023-12-08T23:30:06.018Z,64454.09
2023-12-08T23:32:34.224Z,64454.09
2023-12-08T23:35:04.717Z,64454.09
2023-12-08T23:37:34.662Z,64454.09
2023-12-08T23:40:03.545Z,64454.09
2023-12-08T23:42:31.908Z,64454.09
2023-12-08T23:44:59.750Z,64454.09
2023-12-08T23:47:27.501Z,64454.09
2023-12-08T23:49:55.095Z,64454.09
2023-12-08T23:52:22.618Z,64454.09
2023-12-08T23:54:50.180Z,64454.09
2023-12-08T23:57:19.090Z,64454.09
2023-12-08T23:59:46.647Z,64454.09
